createdAt,value
2017-11-20T00:02:14.859Z,10.27
2017-11-20T00:04:41.551Z,10.38
2017-11-20T00:07:08.163Z,14.07
2017-11-20T00:09:34.795Z,11.12
2017-11-20T00:12:01.414Z,11.07
2017-11-20T00:14:28.031Z,13.95
2017-11-20T00:16:54.651Z,9.30
2017-11-20T00:19:21.285Z,9.52
2017-11-20T00:21:47.886Z,9.45
2017-11-20T00:24:14.519Z,9.10
2017-11-20T00:26:41.132Z,10.52
2017-11-20T00:29:07.739Z,8.20
2017-11-20T00:31:34.358Z,8.48
2017-11-20T00:34:00.970Z,9.13
2017-11-20T00:36:27.608Z,6.55
2017-11-20T00:38:54.227Z,14.73
2017-11-20T00:41:20.843Z,11.20
2017-11-20T00:43:47.463Z,11.95
2017-11-20T00:46:14.102Z,8.63
2017-11-20T00:48:40.719Z,8.25
2017-11-20T00:51:07.422Z,8.48
2017-11-20T00:53:34.061Z,12.18
2017-11-20T00:56:00.711Z,11.15
2017-11-20T00:58:27.319Z,8.80
2017-11-20T01:00:53.948Z,10.40
2017-11-20T01:03:20.579Z,9.85
2017-11-20T01:05:47.220Z,10.50
2017-11-20T01:08:13.826Z,9.32
2017-11-20T01:10:40.431Z,9.90
2017-11-20T01:13:07.057Z,11.60
2017-11-20T01:15:33.667Z,10.48
2017-11-20T01:18:00.317Z,9.48
2017-11-20T01:20:26.953Z,9.55
2017-11-20T01:22:53.559Z,9.20
2017-11-20T01:25:20.167Z,11.07
2017-11-20T01:27:46.809Z,10.38
2017-11-20T01:30:13.423Z,10.30
2017-11-20T01:32:40.139Z,10.32
2017-11-20T01:35:06.768Z,10.10
2017-11-20T01:37:33.426Z,10.27
2017-11-20T01:40:00.052Z,8.97
2017-11-20T01:42:26.700Z,10.32
2017-11-20T01:44:53.320Z,9.60
2017-11-20T01:47:19.923Z,7.80
2017-11-20T01:49:46.561Z,10.80
2017-11-20T01:52:13.159Z,9.80
2017-11-20T01:54:39.775Z,10.68
2017-11-20T01:57:06.407Z,10.93
2017-11-20T01:59:33.007Z,9.23
2017-11-20T02:01:59.620Z,9.85
2017-11-20T02:04:26.264Z,9.98
2017-11-20T02:06:52.883Z,10.98
2017-11-20T02:09:19.509Z,9.50
2017-11-20T02:11:46.127Z,9.30
2017-11-20T02:14:12.807Z,10.82
2017-11-20T02:16:39.447Z,15.52
2017-11-20T02:19:06.131Z,10.32
2017-11-20T02:21:32.735Z,10.95
2017-11-20T02:23:59.351Z,9.68
2017-11-20T02:26:26.107Z,8.98
2017-11-20T02:28:52.727Z,8.40
2017-11-20T02:31:19.335Z,7.77
2017-11-20T02:33:45.939Z,8.82
2017-11-20T02:36:12.563Z,9.85
2017-11-20T02:38:39.177Z,10.02
2017-11-20T02:41:05.788Z,9.10
2017-11-20T02:43:32.413Z,8.90
2017-11-20T02:45:59.028Z,6.93
2017-11-20T02:48:25.652Z,8.70
2017-11-20T02:50:52.264Z,9.07
2017-11-20T02:53:18.923Z,8.13
2017-11-20T02:55:45.559Z,9.07
2017-11-20T02:58:12.176Z,8.50
2017-11-20T03:00:38.784Z,8.52
2017-11-20T03:03:05.485Z,9.13
2017-11-20T03:05:32.124Z,8.65
2017-11-20T03:07:58.783Z,7.55
2017-11-20T03:10:25.408Z,12.90
2017-11-20T03:12:52.020Z,8.43
2017-11-20T03:15:18.627Z,9.90
2017-11-20T03:17:45.250Z,7.85
2017-11-20T03:20:11.955Z,8.50
2017-11-20T03:22:38.567Z,8.80
2017-11-20T03:25:05.204Z,10.60
2017-11-20T03:27:31.827Z,8.50
2017-11-20T03:29:58.522Z,6.67
2017-11-20T03:32:25.143Z,8.82
2017-11-20T03:34:51.755Z,10.63
2017-11-20T03:37:18.435Z,8.85
2017-11-20T03:39:45.039Z,9.05
2017-11-20T03:42:11.750Z,11.50
2017-11-20T03:44:38.380Z,9.77
2017-11-20T03:47:04.988Z,9.75
2017-11-20T03:49:31.592Z,9.90
2017-11-20T03:51:58.224Z,10.30
2017-11-20T03:54:24.915Z,9.98
2017-11-20T03:56:51.558Z,10.10
2017-11-20T03:59:18.294Z,13.10
2017-11-20T04:01:44.932Z,9.77
2017-11-20T04:04:11.566Z,12.40
2017-11-20T04:06:38.193Z,10.70
2017-11-20T04:09:04.798Z,11.85
2017-11-20T04:11:31.522Z,9.75
2017-11-20T04:13:58.136Z,8.80
2017-11-20T04:16:24.743Z,10.48
2017-11-20T04:18:51.364Z,10.68
2017-11-20T04:21:17.979Z,8.25
2017-11-20T04:23:44.616Z,10.00
2017-11-20T04:26:11.238Z,9.85
2017-11-20T04:28:37.863Z,11.02
2017-11-20T04:31:04.490Z,10.25
2017-11-20T04:33:31.129Z,10.95
2017-11-20T04:35:57.739Z,11.20
2017-11-20T04:38:24.376Z,10.13
2017-11-20T04:40:50.986Z,10.98
2017-11-20T04:43:17.595Z,10.60
2017-11-20T04:45:44.227Z,11.45
2017-11-20T04:48:10.847Z,10.27
2017-11-20T04:50:37.483Z,16.25
2017-11-20T04:53:04.087Z,12.90
2017-11-20T04:55:30.708Z,9.15
2017-11-20T04:57:57.344Z,10.95
2017-11-20T05:00:23.955Z,12.52
2017-11-20T05:02:50.568Z,16.33
2017-11-20T05:05:17.278Z,14.18
2017-11-20T05:07:43.896Z,11.45
2017-11-20T05:10:10.530Z,12.93
2017-11-20T05:12:37.155Z,10.70
2017-11-20T05:15:03.776Z,10.35
2017-11-20T05:17:30.407Z,13.18
2017-11-20T05:19:57.025Z,16.95
2017-11-20T05:22:23.639Z,13.38
2017-11-20T05:24:50.272Z,11.27
2017-11-20T05:27:16.883Z,11.05
2017-11-20T05:29:43.499Z,10.57
2017-11-20T05:32:10.123Z,9.90
2017-11-20T05:34:36.804Z,10.95
2017-11-20T05:37:03.425Z,11.02
2017-11-20T05:39:30.067Z,12.43
2017-11-20T05:41:56.688Z,10.85
2017-11-20T05:44:23.399Z,13.62
2017-11-20T05:46:50.026Z,11.18
2017-11-20T05:49:16.636Z,15.68
2017-11-20T05:51:43.262Z,10.30
2017-11-20T05:54:09.918Z,12.13
2017-11-20T05:56:36.553Z,13.40
2017-11-20T05:59:03.388Z,14.60
2017-11-20T06:01:30.004Z,10.65
2017-11-20T06:03:56.620Z,12.23
2017-11-20T06:06:23.243Z,10.90
2017-11-20T06:08:49.852Z,11.40
2017-11-20T06:11:16.591Z,12.82
2017-11-20T06:13:43.195Z,11.20
2017-11-20T06:16:09.875Z,13.52
2017-11-20T06:18:36.499Z,12.77
2017-11-20T06:21:03.120Z,13.07
2017-11-20T06:23:29.736Z,11.10
2017-11-20T06:25:56.372Z,13.57
2017-11-20T06:28:23.004Z,15.38
2017-11-20T06:30:49.620Z,11.93
2017-11-20T06:33:16.250Z,11.25
2017-11-20T06:35:42.867Z,12.15
2017-11-20T06:38:09.577Z,12.88
2017-11-20T06:40:36.200Z,14.07
2017-11-20T06:43:02.843Z,11.27
2017-11-20T06:45:29.463Z,13.65
2017-11-20T06:47:56.077Z,14.30
2017-11-20T06:50:22.783Z,16.27
2017-11-20T06:52:49.419Z,16.10
2017-11-20T06:55:16.034Z,13.27
2017-11-20T06:57:42.651Z,11.30
2017-11-20T07:00:09.288Z,16.75
2017-11-20T07:02:35.907Z,15.27
2017-11-20T07:05:02.541Z,14.73
2017-11-20T07:07:29.179Z,13.10
2017-11-20T07:09:55.800Z,12.85
2017-11-20T07:12:22.416Z,14.00
2017-11-20T07:14:49.056Z,15.88
2017-11-20T07:17:15.673Z,15.52
2017-11-20T07:19:42.290Z,12.50
2017-11-20T07:22:09.040Z,12.45
2017-11-20T07:24:35.666Z,22.37
2017-11-20T07:27:02.385Z,18.42
2017-11-20T07:29:35.036Z,16.05
2017-11-20T07:32:01.781Z,12.43
2017-11-20T07:34:34.354Z,13.13
2017-11-20T07:37:06.733Z,15.65
2017-11-20T07:39:33.359Z,12.68
2017-11-20T07:42:00.072Z,17.33
2017-11-20T07:44:26.687Z,13.98
2017-11-20T07:46:53.323Z,13.05
2017-11-20T07:49:19.987Z,20.02
2017-11-20T07:51:46.636Z,19.73
2017-11-20T07:54:13.263Z,18.15
2017-11-20T07:56:39.911Z,13.40
2017-11-20T07:59:06.536Z,12.43
2017-11-20T08:01:33.195Z,17.75
2017-11-20T08:03:59.815Z,13.65
2017-11-20T08:06:26.431Z,22.90
2017-11-20T08:08:53.064Z,16.02
2017-11-20T08:11:19.752Z,12.90
2017-11-20T08:13:46.377Z,19.35
2017-11-20T08:16:13.016Z,16.23
2017-11-20T08:18:39.639Z,18.20
2017-11-20T08:21:06.304Z,16.98
2017-11-20T08:23:32.933Z,17.52
2017-11-20T08:25:59.555Z,16.90
2017-11-20T08:28:26.214Z,13.20
2017-11-20T08:30:52.831Z,14.43
2017-11-20T08:33:19.492Z,16.75
2017-11-20T08:35:46.123Z,15.27
2017-11-20T08:38:12.756Z,14.95
2017-11-20T08:40:39.419Z,17.60
2017-11-20T08:43:06.031Z,23.90
2017-11-20T08:45:32.655Z,13.50
2017-11-20T08:47:59.328Z,16.20
2017-11-20T08:50:25.952Z,12.82
2017-11-20T08:52:52.585Z,15.98
2017-11-20T08:55:19.235Z,12.70
2017-11-20T08:57:45.890Z,14.05
2017-11-20T09:00:12.502Z,14.43
2017-11-20T09:02:39.145Z,12.70
2017-11-20T09:05:05.779Z,15.77
2017-11-20T09:07:32.406Z,19.77
2017-11-20T09:09:59.057Z,16.45
2017-11-20T09:12:25.717Z,14.40
2017-11-20T09:14:52.334Z,13.52
2017-11-20T09:17:18.963Z,14.45
2017-11-20T09:19:45.676Z,12.07
2017-11-20T09:22:12.319Z,16.15
2017-11-20T09:24:39.016Z,13.68
2017-11-20T09:27:05.633Z,16.10
2017-11-20T09:29:32.271Z,18.02
2017-11-20T09:31:58.892Z,13.48
2017-11-20T09:34:25.506Z,15.02
2017-11-20T09:36:52.141Z,13.88
2017-11-20T09:39:18.758Z,15.05
2017-11-20T09:41:45.383Z,12.27
2017-11-20T09:44:11.996Z,11.93
2017-11-20T09:46:38.608Z,13.80
2017-11-20T09:49:05.241Z,11.30
2017-11-20T09:51:31.881Z,15.18
2017-11-20T09:53:58.488Z,14.68
2017-11-20T09:56:25.119Z,13.70
2017-11-20T09:58:51.796Z,19.42
2017-11-20T10:01:18.424Z,9.82
2017-11-20T10:03:45.053Z,13.75
2017-11-20T10:06:11.672Z,15.73
2017-11-20T10:08:38.292Z,11.75
2017-11-20T10:11:04.926Z,16.83
2017-11-20T10:13:31.547Z,24.23
2017-11-20T10:15:58.243Z,10.50
2017-11-20T10:18:24.868Z,11.70
2017-11-20T10:20:51.481Z,9.98
2017-11-20T10:23:18.092Z,13.57
2017-11-20T10:25:44.715Z,10.75
2017-11-20T10:28:11.357Z,12.50
2017-11-20T10:30:37.972Z,17.90
2017-11-20T10:33:04.600Z,9.07
2017-11-20T10:35:31.210Z,9.20
2017-11-20T10:37:57.825Z,11.75
2017-11-20T10:40:24.560Z,12.27
2017-11-20T10:42:51.179Z,17.35
2017-11-20T10:45:17.799Z,9.70
2017-11-20T10:47:44.425Z,14.40
2017-11-20T10:50:11.033Z,10.27
2017-11-20T10:52:37.650Z,10.07
2017-11-20T10:55:04.359Z,10.38
2017-11-20T10:57:31.835Z,10.90
2017-11-20T10:59:58.448Z,19.92
2017-11-20T11:02:26.367Z,10.57
2017-11-20T11:04:53.747Z,10.75
2017-11-20T11:07:20.384Z,16.98
2017-11-20T11:09:47.000Z,10.02
2017-11-20T11:12:13.608Z,11.02
2017-11-20T11:14:40.236Z,10.02
2017-11-20T11:17:06.873Z,11.18
2017-11-20T11:19:33.507Z,11.35
2017-11-20T11:22:00.143Z,14.52
2017-11-20T11:24:26.831Z,9.90
2017-11-20T11:26:53.535Z,11.57
2017-11-20T11:29:20.163Z,11.90
2017-11-20T11:31:46.784Z,16.52
2017-11-20T11:34:13.446Z,14.73
2017-11-20T11:36:40.094Z,11.35
2017-11-20T11:39:06.707Z,12.68
2017-11-20T11:41:33.369Z,13.68
2017-11-20T11:43:59.984Z,12.20
2017-11-20T11:46:26.602Z,18.85
2017-11-20T11:48:53.321Z,19.20
2017-11-20T11:51:20.024Z,14.27
2017-11-20T11:53:46.683Z,15.45
2017-11-20T11:56:13.344Z,17.55
2017-11-20T11:58:39.961Z,14.43
2017-11-20T12:01:06.596Z,14.95
2017-11-20T12:03:33.218Z,14.38
2017-11-20T12:05:59.896Z,16.70
2017-11-20T12:08:26.544Z,19.48
2017-11-20T12:10:53.210Z,15.80
2017-11-20T12:13:19.847Z,15.43
2017-11-20T12:15:46.488Z,16.70
2017-11-20T12:18:13.118Z,13.18
2017-11-20T12:20:39.743Z,14.30
2017-11-20T12:23:06.473Z,15.45
2017-11-20T12:25:33.185Z,19.95
2017-11-20T12:27:59.844Z,19.55
2017-11-20T12:30:26.518Z,14.35
2017-11-20T12:32:53.196Z,13.65
2017-11-20T12:35:19.804Z,15.50
2017-11-20T12:37:46.495Z,13.75
2017-11-20T12:40:13.214Z,18.27
2017-11-20T12:42:39.835Z,15.55
2017-11-20T12:45:06.530Z,14.13
2017-11-20T12:47:33.147Z,13.75
2017-11-20T12:49:59.871Z,14.30
2017-11-20T12:52:26.551Z,19.17
2017-11-20T12:54:53.259Z,13.77
2017-11-20T12:57:20.007Z,13.48
2017-11-20T12:59:46.909Z,12.88
2017-11-20T13:02:13.590Z,16.67
2017-11-20T13:04:40.209Z,12.85
2017-11-20T13:07:08.640Z,14.50
2017-11-20T13:09:35.299Z,14.23
2017-11-20T13:12:01.940Z,16.90
2017-11-20T13:14:28.563Z,13.77
2017-11-20T13:16:55.181Z,13.38
2017-11-20T13:19:21.823Z,15.95
2017-11-20T13:21:48.822Z,11.95
2017-11-20T13:24:15.739Z,14.05
2017-11-20T13:26:42.911Z,13.10
2017-11-20T13:29:09.722Z,16.40
2017-11-20T13:31:36.352Z,16.80
2017-11-20T13:34:03.408Z,11.50
2017-11-20T13:36:30.205Z,13.45
2017-11-20T13:38:56.950Z,15.80
2017-11-20T13:41:23.616Z,14.60
2017-11-20T13:43:50.456Z,13.57
2017-11-20T13:46:17.091Z,13.82
2017-11-20T13:48:43.706Z,11.80
2017-11-20T13:51:10.375Z,14.57
2017-11-20T13:53:37.012Z,13.52
2017-11-20T13:56:03.752Z,10.52
2017-11-20T13:58:30.384Z,12.25
2017-11-20T14:00:57.023Z,13.25
2017-11-20T14:03:23.779Z,12.80
2017-11-20T14:05:50.512Z,13.40
2017-11-20T14:08:17.635Z,21.60
2017-11-20T14:10:44.251Z,14.25
2017-11-20T14:13:10.872Z,15.57
2017-11-20T14:15:37.498Z,14.32
2017-11-20T14:18:04.657Z,15.13
2017-11-20T14:20:31.367Z,16.27
2017-11-20T14:22:57.987Z,13.57
2017-11-20T14:25:24.678Z,15.30
2017-11-20T14:27:51.308Z,17.08
2017-11-20T14:30:17.927Z,19.55
2017-11-20T14:32:44.548Z,12.82
2017-11-20T14:35:11.228Z,13.65
2017-11-20T14:37:37.845Z,13.30
2017-11-20T14:40:04.460Z,11.52
2017-11-20T14:42:31.212Z,12.65
2017-11-20T14:44:57.888Z,12.02
2017-11-20T14:47:24.630Z,12.63
2017-11-20T14:49:51.269Z,12.10
2017-11-20T14:52:22.883Z,13.68
2017-11-20T14:54:49.494Z,10.35
2017-11-20T14:57:16.204Z,10.82
2017-11-20T14:59:42.811Z,10.82
2017-11-20T15:02:09.669Z,13.20
2017-11-20T15:04:36.291Z,11.43
2017-11-20T15:07:03.166Z,12.10
2017-11-20T15:09:29.787Z,12.18
2017-11-20T15:11:56.552Z,14.07
2017-11-20T15:14:23.168Z,12.05
2017-11-20T15:16:49.814Z,11.20
2017-11-20T15:19:16.576Z,14.35
2017-11-20T15:21:43.230Z,12.70
2017-11-20T15:24:10.054Z,12.82
2017-11-20T15:26:36.705Z,12.45
2017-11-20T15:29:03.328Z,13.60
2017-11-20T15:31:29.940Z,13.20
2017-11-20T15:33:56.619Z,13.90
2017-11-20T15:36:23.339Z,12.68
2017-11-20T15:38:49.960Z,14.07
2017-11-20T15:41:16.591Z,12.15
2017-11-20T15:43:43.211Z,12.68
2017-11-20T15:46:09.864Z,13.45
2017-11-20T15:48:36.506Z,13.02
2017-11-20T15:51:03.118Z,13.27
2017-11-20T15:53:29.747Z,12.73
2017-11-20T15:55:56.380Z,12.82
2017-11-20T15:58:23.071Z,14.73
2017-11-20T16:00:49.815Z,13.50
2017-11-20T16:03:16.435Z,13.60
2017-11-20T16:05:43.047Z,12.93
2017-11-20T16:08:09.770Z,14.95
2017-11-20T16:10:36.387Z,12.48
2017-11-20T16:13:03.019Z,19.60
2017-11-20T16:15:29.656Z,13.13
2017-11-20T16:17:56.275Z,13.10
2017-11-20T16:20:22.895Z,14.75
2017-11-20T16:22:49.553Z,12.13
2017-11-20T16:25:16.172Z,12.57
2017-11-20T16:27:42.843Z,13.82
2017-11-20T16:30:09.484Z,18.42
2017-11-20T16:32:36.111Z,13.05
2017-11-20T16:35:02.723Z,14.13
2017-11-20T16:37:29.361Z,12.85
2017-11-20T16:39:55.980Z,14.57
2017-11-20T16:42:22.601Z,13.82
2017-11-20T16:44:49.248Z,12.30
2017-11-20T16:47:15.881Z,14.90
2017-11-20T16:49:42.507Z,16.27
2017-11-20T16:52:09.151Z,15.30
2017-11-20T16:54:35.779Z,13.23
2017-11-20T16:57:08.347Z,14.02
2017-11-20T16:59:35.821Z,13.62
2017-11-20T17:02:08.295Z,15.10
2017-11-20T17:04:34.989Z,15.07
2017-11-20T17:07:01.603Z,14.68
2017-11-20T17:09:28.232Z,13.93
2017-11-20T17:11:54.981Z,15.68
2017-11-20T17:14:21.593Z,13.93
2017-11-20T17:16:48.227Z,14.38
2017-11-20T17:19:14.899Z,14.45
2017-11-20T17:21:41.512Z,13.98
2017-11-20T17:24:08.248Z,14.13
2017-11-20T17:26:34.876Z,15.35
2017-11-20T17:29:01.524Z,16.08
2017-11-20T17:31:28.152Z,20.88
2017-11-20T17:33:54.771Z,15.00
2017-11-20T17:36:21.395Z,14.13
2017-11-20T17:38:48.032Z,16.30
2017-11-20T17:41:14.660Z,15.10
2017-11-20T17:43:41.278Z,16.70
2017-11-20T17:46:07.983Z,16.37
2017-11-20T17:48:34.623Z,19.40
2017-11-20T17:51:01.235Z,17.23
2017-11-20T17:53:27.871Z,16.77
2017-11-20T17:55:54.527Z,18.40
2017-11-20T17:58:21.165Z,15.95
2017-11-20T18:00:47.783Z,16.90
2017-11-20T18:03:14.399Z,15.27
2017-11-20T18:05:41.035Z,17.40
2017-11-20T18:08:07.740Z,18.23
2017-11-20T18:10:34.359Z,19.95
2017-11-20T18:13:00.998Z,25.40
2017-11-20T18:15:27.626Z,24.50
2017-11-20T18:17:54.273Z,17.87
2017-11-20T18:20:20.888Z,19.48
2017-11-20T18:22:47.519Z,16.98
2017-11-20T18:25:14.144Z,22.42
2017-11-20T18:27:40.824Z,18.95
2017-11-20T18:30:07.481Z,18.50
2017-11-20T18:32:34.096Z,19.90
2017-11-20T18:35:00.711Z,18.85
2017-11-20T18:37:27.366Z,20.00
2017-11-20T18:39:53.987Z,25.10
2017-11-20T18:42:20.603Z,22.20
2017-11-20T18:44:47.240Z,21.87
2017-11-20T18:47:13.857Z,19.55
2017-11-20T18:49:40.474Z,17.35
2017-11-20T18:52:07.128Z,17.58
2017-11-20T18:54:33.772Z,25.27
2017-11-20T18:57:00.408Z,18.50
2017-11-20T18:59:27.024Z,17.70
2017-11-20T19:01:59.389Z,19.20
2017-11-20T19:04:32.012Z,20.80
2017-11-20T19:07:04.691Z,16.65
2017-11-20T19:09:31.319Z,17.67
2017-11-20T19:11:57.958Z,17.42
2017-11-20T19:14:24.615Z,17.83
2017-11-20T19:16:51.248Z,19.52
2017-11-20T19:19:17.870Z,19.17
2017-11-20T19:21:44.482Z,18.48
2017-11-20T19:24:11.115Z,18.60
2017-11-20T19:26:37.734Z,20.73
2017-11-20T19:29:04.359Z,17.02
2017-11-20T19:31:31.002Z,16.83
2017-11-20T19:33:57.625Z,20.30
2017-11-20T19:36:24.248Z,21.62
2017-11-20T19:38:50.889Z,17.52
2017-11-20T19:41:17.504Z,19.80
2017-11-20T19:43:44.151Z,18.37
2017-11-20T19:46:10.791Z,22.75
2017-11-20T19:48:37.418Z,20.33
2017-11-20T19:51:04.116Z,21.90
2017-11-20T19:53:30.758Z,20.08
2017-11-20T19:55:57.448Z,19.80
2017-11-20T19:58:24.111Z,21.02
2017-11-20T20:00:50.793Z,27.35
2017-11-20T20:03:17.403Z,18.00
2017-11-20T20:05:44.025Z,20.25
2017-11-20T20:08:10.660Z,21.15
2017-11-20T20:10:37.280Z,19.25
2017-11-20T20:13:03.927Z,21.35
2017-11-20T20:15:36.395Z,19.70
2017-11-20T20:18:03.064Z,17.62
2017-11-20T20:20:29.687Z,17.95
2017-11-20T20:22:56.303Z,17.10
2017-11-20T20:25:22.944Z,16.55
2017-11-20T20:27:49.629Z,17.70
2017-11-20T20:30:16.367Z,16.50
2017-11-20T20:32:43.113Z,18.10
2017-11-20T20:35:09.815Z,17.65
2017-11-20T20:37:36.434Z,20.70
2017-11-20T20:40:03.072Z,19.95
2017-11-20T20:42:29.691Z,18.95
2017-11-20T20:44:56.364Z,17.40
2017-11-20T20:47:22.983Z,18.15
2017-11-20T20:49:49.602Z,19.42
2017-11-20T20:52:16.227Z,18.02
2017-11-20T20:54:42.956Z,18.65
2017-11-20T20:57:09.579Z,19.58
2017-11-20T20:59:36.233Z,25.52
2017-11-20T21:02:02.863Z,20.70
2017-11-20T21:04:29.508Z,20.30
2017-11-20T21:06:56.141Z,19.52
2017-11-20T21:09:22.772Z,19.48
2017-11-20T21:11:55.176Z,16.92
2017-11-20T21:14:21.803Z,19.58
2017-11-20T21:16:48.419Z,18.98
2017-11-20T21:19:15.055Z,17.52
2017-11-20T21:21:41.688Z,18.00
2017-11-20T21:24:08.323Z,18.92
2017-11-20T21:26:34.962Z,17.60
2017-11-20T21:29:01.596Z,17.33
2017-11-20T21:31:28.278Z,18.80
2017-11-20T21:33:54.920Z,18.37
2017-11-20T21:36:21.600Z,23.38
2017-11-20T21:38:48.304Z,18.62
2017-11-20T21:41:15.036Z,18.27
2017-11-20T21:43:41.675Z,20.33
2017-11-20T21:46:08.312Z,17.37
2017-11-20T21:48:34.955Z,20.60
2017-11-20T21:51:01.576Z,21.75
2017-11-20T21:53:28.224Z,17.45
2017-11-20T21:55:54.840Z,19.77
2017-11-20T21:58:21.463Z,20.17
2017-11-20T22:00:48.104Z,19.40
2017-11-20T22:03:14.745Z,18.92
2017-11-20T22:05:41.893Z,18.75
2017-11-20T22:08:08.523Z,20.02
2017-11-20T22:10:35.297Z,19.33
2017-11-20T22:13:09.013Z,18.73
2017-11-20T22:15:35.673Z,17.62
2017-11-20T22:18:02.293Z,18.10
2017-11-20T22:20:28.922Z,16.92
2017-11-20T22:22:55.575Z,18.40
2017-11-20T22:25:22.210Z,17.87
2017-11-20T22:27:48.834Z,18.52
2017-11-20T22:30:15.520Z,16.70
2017-11-20T22:32:42.146Z,17.40
2017-11-20T22:35:09.031Z,18.55
2017-11-20T22:37:35.654Z,18.40
2017-11-20T22:40:02.283Z,18.35
2017-11-20T22:42:28.907Z,18.55
2017-11-20T22:44:55.528Z,16.20
2017-11-20T22:47:22.145Z,15.70
2017-11-20T22:49:48.776Z,17.60
2017-11-20T22:52:15.387Z,15.02
2017-11-20T22:54:42.011Z,15.93
2017-11-20T22:57:08.643Z,16.20
2017-11-20T22:59:35.259Z,15.45
2017-11-20T23:02:01.896Z,17.08
2017-11-20T23:04:28.502Z,17.85
2017-11-20T23:06:55.124Z,17.45
2017-11-20T23:09:21.827Z,15.60
2017-11-20T23:11:48.484Z,15.57
2017-11-20T23:14:15.122Z,16.73
2017-11-20T23:16:41.858Z,16.80
2017-11-20T23:19:08.473Z,17.52
2017-11-20T23:21:35.108Z,20.20
2017-11-20T23:24:01.736Z,19.35
2017-11-20T23:26:28.359Z,15.27
2017-11-20T23:28:54.988Z,16.10
2017-11-20T23:31:21.616Z,13.75
2017-11-20T23:33:48.231Z,11.45
2017-11-20T23:36:14.864Z,13.43
2017-11-20T23:38:41.475Z,12.13
2017-11-20T23:41:08.143Z,12.77
2017-11-20T23:43:34.784Z,11.85
2017-11-20T23:46:01.408Z,12.43
2017-11-20T23:48:28.027Z,10.93
2017-11-20T23:50:54.707Z,12.57
2017-11-20T23:53:27.294Z,12.60
2017-11-20T23:55:54.024Z,13.95
2017-11-20T23:58:20.641Z,13.52
